sensor_id;sensor_type;location;lat;lon;timestamp;P1;durP1;ratioP1;P2;durP2;ratioP2
24485;SDS011;13449;49.374;8.584;2023-05-09T00:01:04;13.15;;;7.07;;
24485;SDS011;13449;49.374;8.584;2023-05-09T00:03:32;12.57;;;7.28;;
24485;SDS011;13449;49.374;8.584;2023-05-09T00:05:59;10.70;;;7.95;;
24485;SDS011;13449;49.374;8.584;2023-05-09T00:08:26;10.82;;;7.05;;
24485;SDS011;13449;49.374;8.584;2023-05-09T00:10:53;9.35;;;7.15;;
24485;SDS011;13449;49.374;8.584;2023-05-09T00:13:19;11.05;;;7.82;;
24485;SDS011;13449;49.374;8.584;2023-05-09T00:15:45;8.93;;;6.85;;
24485;SDS011;13449;49.374;8.584;2023-05-09T00:18:12;11.25;;;8.07;;
24485;SDS011;13449;49.374;8.584;2023-05-09T00:20:41;19.13;;;10.68;;
24485;SDS011;13449;49.374;8.584;2023-05-09T00:23:09;22.63;;;10.35;;
24485;SDS011;13449;49.374;8.584;2023-05-09T00:25:36;16.10;;;10.05;;
24485;SDS011;13449;49.374;8.584;2023-05-09T00:28:02;17.65;;;10.32;;
24485;SDS011;13449;49.374;8.584;2023-05-09T00:30:29;16.92;;;9.57;;
24485;SDS011;13449;49.374;8.584;2023-05-09T00:32:56;14.00;;;9.18;;
24485;SDS011;13449;49.374;8.584;2023-05-09T00:35:23;16.77;;;10.20;;
24485;SDS011;13449;49.374;8.584;2023-05-09T00:37:52;9.35;;;7.10;;
24485;SDS011;13449;49.374;8.584;2023-05-09T00:40:19;15.25;;;9.40;;
24485;SDS011;13449;49.374;8.584;2023-05-09T00:42:45;15.15;;;10.43;;
24485;SDS011;13449;49.374;8.584;2023-05-09T00:45:12;13.20;;;7.32;;
24485;SDS011;13449;49.374;8.584;2023-05-09T00:47:39;11.55;;;7.35;;
24485;SDS011;13449;49.374;8.584;2023-05-09T00:50:08;12.38;;;8.13;;
24485;SDS011;13449;49.374;8.584;2023-05-09T00:52:35;10.00;;;6.53;;
24485;SDS011;13449;49.374;8.584;2023-05-09T00:55:02;9.43;;;6.18;;
24485;SDS011;13449;49.374;8.584;2023-05-09T00:57:30;9.45;;;5.95;;
24485;SDS011;13449;49.374;8.584;2023-05-09T00:59:56;8.55;;;5.43;;
24485;SDS011;13449;49.374;8.584;2023-05-09T01:02:23;7.15;;;5.35;;
24485;SDS011;13449;49.374;8.584;2023-05-09T01:04:49;12.82;;;6.55;;
24485;SDS011;13449;49.374;8.584;2023-05-09T01:07:19;9.27;;;6.43;;
24485;SDS011;13449;49.374;8.584;2023-05-09T01:12:41;9.48;;;6.45;;
24485;SDS011;13449;49.374;8.584;2023-05-09T01:15:16;8.90;;;6.13;;
24485;SDS011;13449;49.374;8.584;2023-05-09T01:20:42;9.27;;;6.28;;
24485;SDS011;13449;49.374;8.584;2023-05-09T01:26:04;9.57;;;6.65;;
24485;SDS011;13449;49.374;8.584;2023-05-09T01:31:11;9.07;;;6.53;;
24485;SDS011;13449;49.374;8.584;2023-05-09T01:33:41;8.60;;;5.50;;
24485;SDS011;13449;49.374;8.584;2023-05-09T01:36:11;10.23;;;6.70;;
24485;SDS011;13449;49.374;8.584;2023-05-09T01:38:46;6.47;;;5.07;;
24485;SDS011;13449;49.374;8.584;2023-05-09T01:41:16;8.27;;;5.80;;
24485;SDS011;13449;49.374;8.584;2023-05-09T01:43:44;10.45;;;6.95;;
24485;SDS011;13449;49.374;8.584;2023-05-09T01:46:13;8.38;;;6.22;;
24485;SDS011;13449;49.374;8.584;2023-05-09T01:48:45;10.30;;;6.85;;
24485;SDS011;13449;49.374;8.584;2023-05-09T01:51:13;9.52;;;5.78;;
24485;SDS011;13449;49.374;8.584;2023-05-09T01:53:41;9.00;;;5.90;;
24485;SDS011;13449;49.374;8.584;2023-05-09T01:56:09;11.52;;;6.80;;
24485;SDS011;13449;49.374;8.584;2023-05-09T01:58:37;9.00;;;6.50;;
24485;SDS011;13449;49.374;8.584;2023-05-09T02:01:04;12.48;;;6.93;;
24485;SDS011;13449;49.374;8.584;2023-05-09T02:03:34;8.35;;;6.57;;
24485;SDS011;13449;49.374;8.584;2023-05-09T02:06:04;8.18;;;6.03;;
24485;SDS011;13449;49.374;8.584;2023-05-09T02:08:32;13.10;;;6.78;;
24485;SDS011;13449;49.374;8.584;2023-05-09T02:10:58;16.40;;;7.60;;
24485;SDS011;13449;49.374;8.584;2023-05-09T02:13:25;13.20;;;8.32;;
24485;SDS011;13449;49.374;8.584;2023-05-09T02:15:52;14.27;;;9.48;;
24485;SDS011;13449;49.374;8.584;2023-05-09T02:18:20;12.25;;;8.57;;
24485;SDS011;13449;49.374;8.584;2023-05-09T02:20:47;25.98;;;13.40;;
24485;SDS011;13449;49.374;8.584;2023-05-09T02:23:13;22.30;;;10.77;;
24485;SDS011;13449;49.374;8.584;2023-05-09T02:25:43;21.25;;;11.35;;
24485;SDS011;13449;49.374;8.584;2023-05-09T02:28:11;17.98;;;11.15;;
24485;SDS011;13449;49.374;8.584;2023-05-09T02:30:43;26.98;;;11.05;;
24485;SDS011;13449;49.374;8.584;2023-05-09T02:33:12;16.95;;;10.77;;
24485;SDS011;13449;49.374;8.584;2023-05-09T02:35:43;17.50;;;11.20;;
24485;SDS011;13449;49.374;8.584;2023-05-09T02:38:13;17.05;;;9.52;;
24485;SDS011;13449;49.374;8.584;2023-05-09T02:40:44;20.48;;;11.10;;
24485;SDS011;13449;49.374;8.584;2023-05-09T02:43:12;19.20;;;11.02;;
24485;SDS011;13449;49.374;8.584;2023-05-09T02:45:40;21.17;;;11.63;;
24485;SDS011;13449;49.374;8.584;2023-05-09T02:48:07;20.27;;;11.40;;
24485;SDS011;13449;49.374;8.584;2023-05-09T02:50:36;20.20;;;11.23;;
24485;SDS011;13449;49.374;8.584;2023-05-09T02:53:08;17.05;;;10.95;;
24485;SDS011;13449;49.374;8.584;2023-05-09T02:55:34;16.17;;;10.32;;
24485;SDS011;13449;49.374;8.584;2023-05-09T02:58:01;21.08;;;11.50;;
24485;SDS011;13449;49.374;8.584;2023-05-09T03:00:39;20.13;;;12.43;;
24485;SDS011;13449;49.374;8.584;2023-05-09T03:03:05;19.65;;;11.90;;
24485;SDS011;13449;49.374;8.584;2023-05-09T03:05:32;17.73;;;11.27;;
24485;SDS011;13449;49.374;8.584;2023-05-09T03:07:58;20.20;;;12.05;;
24485;SDS011;13449;49.374;8.584;2023-05-09T03:10:25;20.23;;;11.85;;
24485;SDS011;13449;49.374;8.584;2023-05-09T03:12:51;21.48;;;12.68;;
24485;SDS011;13449;49.374;8.584;2023-05-09T03:15:20;22.50;;;12.95;;
24485;SDS011;13449;49.374;8.584;2023-05-09T03:17:47;20.45;;;12.23;;
24485;SDS011;13449;49.374;8.584;2023-05-09T03:20:14;21.00;;;11.90;;
24485;SDS011;13449;49.374;8.584;2023-05-09T03:22:40;18.08;;;11.02;;
24485;SDS011;13449;49.374;8.584;2023-05-09T03:25:07;16.63;;;11.55;;
24485;SDS011;13449;49.374;8.584;2023-05-09T03:27:34;21.42;;;10.80;;
24485;SDS011;13449;49.374;8.584;2023-05-09T03:30:00;14.85;;;9.15;;
24485;SDS011;13449;49.374;8.584;2023-05-09T03:32:26;15.80;;;9.93;;
24485;SDS011;13449;49.374;8.584;2023-05-09T03:34:56;11.15;;;8.30;;
24485;SDS011;13449;49.374;8.584;2023-05-09T03:37:22;9.35;;;7.13;;
24485;SDS011;13449;49.374;8.584;2023-05-09T03:39:52;22.48;;;12.48;;
24485;SDS011;13449;49.374;8.584;2023-05-09T03:42:18;16.90;;;11.02;;
24485;SDS011;13449;49.374;8.584;2023-05-09T03:44:48;21.58;;;9.57;;
24485;SDS011;13449;49.374;8.584;2023-05-09T03:47:14;22.23;;;11.40;;
24485;SDS011;13449;49.374;8.584;2023-05-09T03:49:43;19.17;;;11.45;;
24485;SDS011;13449;49.374;8.584;2023-05-09T03:52:12;20.17;;;13.07;;
24485;SDS011;13449;49.374;8.584;2023-05-09T03:54:39;22.27;;;11.95;;
24485;SDS011;13449;49.374;8.584;2023-05-09T03:57:06;22.52;;;8.95;;
24485;SDS011;13449;49.374;8.584;2023-05-09T03:59:32;16.52;;;10.57;;
24485;SDS011;13449;49.374;8.584;2023-05-09T04:02:01;21.85;;;13.57;;
24485;SDS011;13449;49.374;8.584;2023-05-09T04:04:28;20.70;;;11.75;;
24485;SDS011;13449;49.374;8.584;2023-05-09T04:06:57;25.23;;;12.38;;
24485;SDS011;13449;49.374;8.584;2023-05-09T04:09:24;26.20;;;13.18;;
24485;SDS011;13449;49.374;8.584;2023-05-09T04:11:50;19.70;;;13.05;;
24485;SDS011;13449;49.374;8.584;2023-05-09T04:14:17;27.27;;;13.35;;
24485;SDS011;13449;49.374;8.584;2023-05-09T04:16:43;19.77;;;12.43;;
24485;SDS011;13449;49.374;8.584;2023-05-09T04:19:10;22.75;;;13.43;;
24485;SDS011;13449;49.374;8.584;2023-05-09T04:21:36;23.88;;;13.60;;
24485;SDS011;13449;49.374;8.584;2023-05-09T04:24:03;24.55;;;14.50;;
24485;SDS011;13449;49.374;8.584;2023-05-09T04:26:30;25.35;;;14.02;;
24485;SDS011;13449;49.374;8.584;2023-05-09T04:28:56;21.35;;;12.50;;
24485;SDS011;13449;49.374;8.584;2023-05-09T04:31:25;23.42;;;12.77;;
24485;SDS011;13449;49.374;8.584;2023-05-09T04:33:52;27.25;;;14.27;;
24485;SDS011;13449;49.374;8.584;2023-05-09T04:36:18;24.13;;;13.98;;
24485;SDS011;13449;49.374;8.584;2023-05-09T04:38:45;22.83;;;12.43;;
24485;SDS011;13449;49.374;8.584;2023-05-09T04:41:11;12.85;;;8.45;;
24485;SDS011;13449;49.374;8.584;2023-05-09T04:43:38;28.20;;;14.45;;
24485;SDS011;13449;49.374;8.584;2023-05-09T04:46:04;27.15;;;13.65;;
24485;SDS011;13449;49.374;8.584;2023-05-09T04:48:31;31.10;;;15.85;;
24485;SDS011;13449;49.374;8.584;2023-05-09T04:50:57;25.05;;;14.10;;
24485;SDS011;13449;49.374;8.584;2023-05-09T04:53:24;23.33;;;13.70;;
24485;SDS011;13449;49.374;8.584;2023-05-09T04:55:51;28.35;;;14.05;;
24485;SDS011;13449;49.374;8.584;2023-05-09T04:58:18;29.83;;;14.43;;
24485;SDS011;13449;49.374;8.584;2023-05-09T05:00:45;25.95;;;14.23;;
24485;SDS011;13449;49.374;8.584;2023-05-09T05:03:11;22.92;;;13.85;;
24485;SDS011;13449;49.374;8.584;2023-05-09T05:05:41;40.53;;;15.85;;
24485;SDS011;13449;49.374;8.584;2023-05-09T05:08:07;24.60;;;12.75;;
24485;SDS011;13449;49.374;8.584;2023-05-09T05:10:34;29.92;;;14.57;;
24485;SDS011;13449;49.374;8.584;2023-05-09T05:13:00;25.60;;;14.68;;
24485;SDS011;13449;49.374;8.584;2023-05-09T05:15:29;25.25;;;13.07;;
24485;SDS011;13449;49.374;8.584;2023-05-09T05:17:58;23.30;;;13.10;;
24485;SDS011;13449;49.374;8.584;2023-05-09T05:20:25;25.33;;;12.93;;
24485;SDS011;13449;49.374;8.584;2023-05-09T05:22:51;27.33;;;14.25;;
24485;SDS011;13449;49.374;8.584;2023-05-09T05:25:20;33.08;;;13.35;;
24485;SDS011;13449;49.374;8.584;2023-05-09T05:27:51;28.98;;;14.75;;
24485;SDS011;13449;49.374;8.584;2023-05-09T05:30:17;30.08;;;14.35;;
24485;SDS011;13449;49.374;8.584;2023-05-09T05:32:46;26.65;;;13.30;;
24485;SDS011;13449;49.374;8.584;2023-05-09T05:35:13;24.75;;;13.93;;
24485;SDS011;13449;49.374;8.584;2023-05-09T05:37:40;22.17;;;13.90;;
24485;SDS011;13449;49.374;8.584;2023-05-09T05:40:07;22.60;;;13.77;;
24485;SDS011;13449;49.374;8.584;2023-05-09T05:42:34;31.27;;;14.35;;
24485;SDS011;13449;49.374;8.584;2023-05-09T05:45:01;27.25;;;14.20;;
24485;SDS011;13449;49.374;8.584;2023-05-09T05:47:33;26.45;;;13.93;;
24485;SDS011;13449;49.374;8.584;2023-05-09T05:50:03;27.35;;;13.30;;
24485;SDS011;13449;49.374;8.584;2023-05-09T05:52:37;30.33;;;14.38;;
24485;SDS011;13449;49.374;8.584;2023-05-09T05:55:07;32.63;;;14.90;;
24485;SDS011;13449;49.374;8.584;2023-05-09T05:57:33;30.75;;;15.45;;
24485;SDS011;13449;49.374;8.584;2023-05-09T06:00:01;38.38;;;15.15;;
24485;SDS011;13449;49.374;8.584;2023-05-09T06:02:30;35.72;;;15.38;;
24485;SDS011;13449;49.374;8.584;2023-05-09T06:04:57;29.50;;;14.82;;
24485;SDS011;13449;49.374;8.584;2023-05-09T06:07:27;27.02;;;14.27;;
24485;SDS011;13449;49.374;8.584;2023-05-09T06:09:56;32.67;;;14.45;;
24485;SDS011;13449;49.374;8.584;2023-05-09T06:12:24;24.85;;;12.88;;
24485;SDS011;13449;49.374;8.584;2023-05-09T06:14:53;22.98;;;12.52;;
24485;SDS011;13449;49.374;8.584;2023-05-09T06:17:19;21.30;;;12.35;;
24485;SDS011;13449;49.374;8.584;2023-05-09T06:19:46;30.10;;;13.15;;
24485;SDS011;13449;49.374;8.584;2023-05-09T06:22:12;30.23;;;14.80;;
24485;SDS011;13449;49.374;8.584;2023-05-09T06:24:41;26.95;;;13.00;;
24485;SDS011;13449;49.374;8.584;2023-05-09T06:27:08;23.10;;;13.13;;
24485;SDS011;13449;49.374;8.584;2023-05-09T06:29:34;29.38;;;13.98;;
24485;SDS011;13449;49.374;8.584;2023-05-09T06:32:00;22.40;;;12.43;;
24485;SDS011;13449;49.374;8.584;2023-05-09T06:34:27;23.05;;;12.57;;
24485;SDS011;13449;49.374;8.584;2023-05-09T06:36:56;21.02;;;11.80;;
24485;SDS011;13449;49.374;8.584;2023-05-09T06:39:22;26.25;;;11.95;;
24485;SDS011;13449;49.374;8.584;2023-05-09T06:41:49;28.25;;;12.95;;
24485;SDS011;13449;49.374;8.584;2023-05-09T06:44:15;20.98;;;12.20;;
24485;SDS011;13449;49.374;8.584;2023-05-09T06:46:42;28.67;;;12.38;;
24485;SDS011;13449;49.374;8.584;2023-05-09T06:49:11;24.65;;;11.65;;
24485;SDS011;13449;49.374;8.584;2023-05-09T06:51:39;21.35;;;11.75;;
24485;SDS011;13449;49.374;8.584;2023-05-09T06:54:05;24.83;;;12.00;;
24485;SDS011;13449;49.374;8.584;2023-05-09T06:56:32;24.52;;;12.60;;
24485;SDS011;13449;49.374;8.584;2023-05-09T06:58:58;25.52;;;12.77;;
24485;SDS011;13449;49.374;8.584;2023-05-09T07:01:25;26.67;;;12.38;;
24485;SDS011;13449;49.374;8.584;2023-05-09T07:03:52;29.65;;;13.25;;
24485;SDS011;13449;49.374;8.584;2023-05-09T07:06:18;26.27;;;12.98;;
24485;SDS011;13449;49.374;8.584;2023-05-09T07:08:45;27.17;;;13.18;;
24485;SDS011;13449;49.374;8.584;2023-05-09T07:11:12;27.55;;;13.95;;
24485;SDS011;13449;49.374;8.584;2023-05-09T07:13:38;25.45;;;13.55;;
24485;SDS011;13449;49.374;8.584;2023-05-09T07:16:05;27.75;;;12.65;;
24485;SDS011;13449;49.374;8.584;2023-05-09T07:18:32;27.73;;;14.25;;
24485;SDS011;13449;49.374;8.584;2023-05-09T07:20:58;37.83;;;14.43;;
24485;SDS011;13449;49.374;8.584;2023-05-09T07:23:25;33.58;;;13.63;;
24485;SDS011;13449;49.374;8.584;2023-05-09T07:25:55;28.48;;;13.65;;
24485;SDS011;13449;49.374;8.584;2023-05-09T07:28:24;30.10;;;15.02;;
24485;SDS011;13449;49.374;8.584;2023-05-09T07:30:51;33.75;;;14.05;;
24485;SDS011;13449;49.374;8.584;2023-05-09T07:33:20;31.83;;;14.27;;
24485;SDS011;13449;49.374;8.584;2023-05-09T07:35:49;30.30;;;14.30;;
24485;SDS011;13449;49.374;8.584;2023-05-09T07:38:18;31.42;;;14.55;;
24485;SDS011;13449;49.374;8.584;2023-05-09T07:40:45;27.98;;;14.77;;
24485;SDS011;13449;49.374;8.584;2023-05-09T07:43:12;31.13;;;15.07;;
24485;SDS011;13449;49.374;8.584;2023-05-09T07:45:39;32.60;;;13.55;;
24485;SDS011;13449;49.374;8.584;2023-05-09T07:48:06;42.90;;;15.73;;
24485;SDS011;13449;49.374;8.584;2023-05-09T07:50:32;27.52;;;12.98;;
24485;SDS011;13449;49.374;8.584;2023-05-09T07:52:59;24.65;;;13.40;;
24485;SDS011;13449;49.374;8.584;2023-05-09T07:55:25;31.83;;;15.27;;
24485;SDS011;13449;49.374;8.584;2023-05-09T07:57:52;29.65;;;14.35;;
24485;SDS011;13449;49.374;8.584;2023-05-09T08:00:18;31.83;;;14.85;;
24485;SDS011;13449;49.374;8.584;2023-05-09T08:02:49;30.88;;;15.15;;
24485;SDS011;13449;49.374;8.584;2023-05-09T08:05:19;29.95;;;16.20;;
24485;SDS011;13449;49.374;8.584;2023-05-09T08:07:46;38.25;;;14.57;;
24485;SDS011;13449;49.374;8.584;2023-05-09T08:10:12;29.65;;;15.35;;
24485;SDS011;13449;49.374;8.584;2023-05-09T08:12:39;31.60;;;14.32;;
24485;SDS011;13449;49.374;8.584;2023-05-09T08:15:06;28.00;;;15.63;;
24485;SDS011;13449;49.374;8.584;2023-05-09T08:17:33;27.98;;;14.48;;
24485;SDS011;13449;49.374;8.584;2023-05-09T08:20:00;27.90;;;14.27;;
24485;SDS011;13449;49.374;8.584;2023-05-09T08:22:30;32.50;;;14.07;;
24485;SDS011;13449;49.374;8.584;2023-05-09T08:24:57;24.83;;;13.15;;
24485;SDS011;13449;49.374;8.584;2023-05-09T08:27:26;29.13;;;14.90;;
24485;SDS011;13449;49.374;8.584;2023-05-09T08:29:52;29.15;;;13.43;;
24485;SDS011;13449;49.374;8.584;2023-05-09T08:32:19;26.88;;;13.55;;
24485;SDS011;13449;49.374;8.584;2023-05-09T08:34:45;32.47;;;14.77;;
24485;SDS011;13449;49.374;8.584;2023-05-09T08:37:12;24.83;;;12.77;;
24485;SDS011;13449;49.374;8.584;2023-05-09T08:39:40;23.00;;;12.85;;
24485;SDS011;13449;49.374;8.584;2023-05-09T08:42:07;28.60;;;14.48;;
24485;SDS011;13449;49.374;8.584;2023-05-09T08:44:34;26.15;;;13.50;;
24485;SDS011;13449;49.374;8.584;2023-05-09T08:47:02;24.05;;;13.90;;
24485;SDS011;13449;49.374;8.584;2023-05-09T08:49:31;30.33;;;15.88;;
24485;SDS011;13449;49.374;8.584;2023-05-09T08:52:00;28.70;;;13.05;;
24485;SDS011;13449;49.374;8.584;2023-05-09T08:54:27;29.23;;;12.88;;
24485;SDS011;13449;49.374;8.584;2023-05-09T08:56:54;27.08;;;12.93;;
24485;SDS011;13449;49.374;8.584;2023-05-09T08:59:20;27.10;;;14.30;;
24485;SDS011;13449;49.374;8.584;2023-05-09T09:01:48;22.35;;;13.35;;
24485;SDS011;13449;49.374;8.584;2023-05-09T09:04:15;26.17;;;14.40;;
24485;SDS011;13449;49.374;8.584;2023-05-09T09:06:41;23.83;;;13.35;;
24485;SDS011;13449;49.374;8.584;2023-05-09T09:09:08;29.63;;;13.15;;
24485;SDS011;13449;49.374;8.584;2023-05-09T09:11:37;29.27;;;13.18;;
24485;SDS011;13449;49.374;8.584;2023-05-09T09:14:09;29.35;;;12.95;;
24485;SDS011;13449;49.374;8.584;2023-05-09T09:16:39;24.50;;;12.52;;
24485;SDS011;13449;49.374;8.584;2023-05-09T09:19:11;28.40;;;14.20;;
24485;SDS011;13449;49.374;8.584;2023-05-09T09:21:42;25.15;;;13.45;;
24485;SDS011;13449;49.374;8.584;2023-05-09T09:24:13;27.80;;;13.75;;
24485;SDS011;13449;49.374;8.584;2023-05-09T09:26:48;23.20;;;13.82;;
24485;SDS011;13449;49.374;8.584;2023-05-09T09:29:16;21.33;;;13.52;;
24485;SDS011;13449;49.374;8.584;2023-05-09T09:31:46;21.20;;;12.80;;
24485;SDS011;13449;49.374;8.584;2023-05-09T09:34:21;21.48;;;12.63;;
24485;SDS011;13449;49.374;8.584;2023-05-09T09:36:48;29.10;;;13.13;;
24485;SDS011;13449;49.374;8.584;2023-05-09T09:39:15;27.10;;;13.50;;
24485;SDS011;13449;49.374;8.584;2023-05-09T09:41:42;21.95;;;12.43;;
24485;SDS011;13449;49.374;8.584;2023-05-09T09:44:14;23.30;;;13.00;;
24485;SDS011;13449;49.374;8.584;2023-05-09T09:46:47;19.48;;;12.43;;
24485;SDS011;13449;49.374;8.584;2023-05-09T09:49:17;18.77;;;11.88;;
24485;SDS011;13449;49.374;8.584;2023-05-09T09:51:44;15.57;;;10.98;;
24485;SDS011;13449;49.374;8.584;2023-05-09T09:54:15;15.70;;;10.88;;
24485;SDS011;13449;49.374;8.584;2023-05-09T09:56:43;17.95;;;10.80;;
24485;SDS011;13449;49.374;8.584;2023-05-09T09:59:12;16.77;;;10.70;;
24485;SDS011;13449;49.374;8.584;2023-05-09T10:02:02;22.08;;;10.48;;
24485;SDS011;13449;49.374;8.584;2023-05-09T10:04:34;19.40;;;11.60;;
24485;SDS011;13449;49.374;8.584;2023-05-09T10:07:05;13.45;;;9.70;;
24485;SDS011;13449;49.374;8.584;2023-05-09T10:09:39;16.40;;;9.93;;
24485;SDS011;13449;49.374;8.584;2023-05-09T10:12:06;14.85;;;9.80;;
24485;SDS011;13449;49.374;8.584;2023-05-09T10:14:34;15.77;;;9.95;;
24485;SDS011;13449;49.374;8.584;2023-05-09T10:17:02;12.88;;;9.48;;
24485;SDS011;13449;49.374;8.584;2023-05-09T10:19:31;23.08;;;10.32;;
24485;SDS011;13449;49.374;8.584;2023-05-09T10:22:02;16.58;;;10.82;;
24485;SDS011;13449;49.374;8.584;2023-05-09T10:27:12;15.05;;;9.95;;
24485;SDS011;13449;49.374;8.584;2023-05-09T10:29:48;13.90;;;10.07;;
24485;SDS011;13449;49.374;8.584;2023-05-09T10:32:19;12.85;;;9.68;;
24485;SDS011;13449;49.374;8.584;2023-05-09T10:34:50;13.75;;;8.85;;
24485;SDS011;13449;49.374;8.584;2023-05-09T10:37:20;10.52;;;7.65;;
24485;SDS011;13449;49.374;8.584;2023-05-09T10:39:47;12.35;;;8.95;;
24485;SDS011;13449;49.374;8.584;2023-05-09T10:44:45;11.50;;;7.38;;
24485;SDS011;13449;49.374;8.584;2023-05-09T10:47:13;12.60;;;8.60;;
24485;SDS011;13449;49.374;8.584;2023-05-09T10:49:41;11.23;;;8.25;;
24485;SDS011;13449;49.374;8.584;2023-05-09T10:52:09;16.98;;;8.45;;
24485;SDS011;13449;49.374;8.584;2023-05-09T10:54:39;13.20;;;7.25;;
24485;SDS011;13449;49.374;8.584;2023-05-09T10:57:08;13.57;;;8.77;;
24485;SDS011;13449;49.374;8.584;2023-05-09T10:59:39;10.60;;;7.03;;
24485;SDS011;13449;49.374;8.584;2023-05-09T11:02:18;9.77;;;6.97;;
24485;SDS011;13449;49.374;8.584;2023-05-09T11:04:46;18.95;;;6.32;;
24485;SDS011;13449;49.374;8.584;2023-05-09T11:07:23;10.35;;;6.20;;
24485;SDS011;13449;49.374;8.584;2023-05-09T11:09:52;7.57;;;5.60;;
24485;SDS011;13449;49.374;8.584;2023-05-09T11:12:32;7.15;;;5.20;;
24485;SDS011;13449;49.374;8.584;2023-05-09T11:15:08;8.65;;;5.45;;
24485;SDS011;13449;49.374;8.584;2023-05-09T11:17:38;9.38;;;5.45;;
24485;SDS011;13449;49.374;8.584;2023-05-09T11:20:05;9.02;;;6.10;;
24485;SDS011;13449;49.374;8.584;2023-05-09T11:22:42;7.93;;;5.65;;
24485;SDS011;13449;49.374;8.584;2023-05-09T12:26:37;13.15;;;4.70;;
24485;SDS011;13449;49.374;8.584;2023-05-09T12:29:05;8.85;;;3.72;;
24485;SDS011;13449;49.374;8.584;2023-05-09T12:31:33;6.80;;;4.50;;
24485;SDS011;13449;49.374;8.584;2023-05-09T12:33:59;9.18;;;4.80;;
24485;SDS011;13449;49.374;8.584;2023-05-09T12:36:33;5.20;;;4.70;;
24485;SDS011;13449;49.374;8.584;2023-05-09T12:39:01;12.85;;;4.30;;
24485;SDS011;13449;49.374;8.584;2023-05-09T12:41:28;6.93;;;4.18;;
24485;SDS011;13449;49.374;8.584;2023-05-09T12:44:06;7.38;;;5.55;;
24485;SDS011;13449;49.374;8.584;2023-05-09T12:46:33;15.23;;;4.45;;
24485;SDS011;13449;49.374;8.584;2023-05-09T12:49:02;6.55;;;4.45;;
24485;SDS011;13449;49.374;8.584;2023-05-09T12:51:31;6.82;;;4.55;;
24485;SDS011;13449;49.374;8.584;2023-05-09T12:54:01;6.47;;;4.13;;
24485;SDS011;13449;49.374;8.584;2023-05-09T12:56:32;4.50;;;3.53;;
24485;SDS011;13449;49.374;8.584;2023-05-09T12:58:59;4.57;;;4.00;;
24485;SDS011;13449;49.374;8.584;2023-05-09T13:01:27;4.20;;;3.63;;
24485;SDS011;13449;49.374;8.584;2023-05-09T13:04:02;6.25;;;4.28;;
24485;SDS011;13449;49.374;8.584;2023-05-09T13:06:31;6.80;;;4.22;;
24485;SDS011;13449;49.374;8.584;2023-05-09T13:08:59;5.53;;;4.20;;
24485;SDS011;13449;49.374;8.584;2023-05-09T13:11:27;5.22;;;4.10;;
24485;SDS011;13449;49.374;8.584;2023-05-09T13:13:54;4.90;;;4.03;;
24485;SDS011;13449;49.374;8.584;2023-05-09T13:16:21;5.25;;;4.35;;
24485;SDS011;13449;49.374;8.584;2023-05-09T13:18:48;4.80;;;3.35;;
24485;SDS011;13449;49.374;8.584;2023-05-09T13:21:17;4.70;;;3.88;;
24485;SDS011;13449;49.374;8.584;2023-05-09T13:23:46;6.50;;;3.80;;
24485;SDS011;13449;49.374;8.584;2023-05-09T13:26:18;5.53;;;3.78;;
24485;SDS011;13449;49.374;8.584;2023-05-09T13:28:44;6.63;;;3.20;;
24485;SDS011;13449;49.374;8.584;2023-05-09T13:31:11;3.30;;;3.00;;
24485;SDS011;13449;49.374;8.584;2023-05-09T13:33:40;4.68;;;3.45;;
24485;SDS011;13449;49.374;8.584;2023-05-09T13:36:10;5.57;;;3.50;;
24485;SDS011;13449;49.374;8.584;2023-05-09T13:38:39;4.78;;;3.20;;
24485;SDS011;13449;49.374;8.584;2023-05-09T13:41:06;11.13;;;4.45;;
24485;SDS011;13449;49.374;8.584;2023-05-09T13:43:33;7.57;;;3.83;;
24485;SDS011;13449;49.374;8.584;2023-05-09T13:46:03;3.95;;;3.55;;
24485;SDS011;13449;49.374;8.584;2023-05-09T13:48:29;5.50;;;4.68;;
24485;SDS011;13449;49.374;8.584;2023-05-09T13:50:56;7.22;;;4.28;;
24485;SDS011;13449;49.374;8.584;2023-05-09T13:53:25;10.68;;;4.10;;
24485;SDS011;13449;49.374;8.584;2023-05-09T13:55:51;12.40;;;3.58;;
24485;SDS011;13449;49.374;8.584;2023-05-09T13:58:18;4.10;;;3.25;;
24485;SDS011;13449;49.374;8.584;2023-05-09T14:00:44;7.93;;;3.60;;
24485;SDS011;13449;49.374;8.584;2023-05-09T14:03:11;9.50;;;4.10;;
24485;SDS011;13449;49.374;8.584;2023-05-09T14:05:37;4.72;;;3.03;;
24485;SDS011;13449;49.374;8.584;2023-05-09T14:08:03;5.30;;;3.25;;
24485;SDS011;13449;49.374;8.584;2023-05-09T14:10:33;7.60;;;2.83;;
24485;SDS011;13449;49.374;8.584;2023-05-09T14:12:59;6.35;;;3.20;;
24485;SDS011;13449;49.374;8.584;2023-05-09T14:15:26;3.38;;;2.70;;
24485;SDS011;13449;49.374;8.584;2023-05-09T14:17:52;3.25;;;2.97;;
24485;SDS011;13449;49.374;8.584;2023-05-09T14:20:19;6.82;;;5.22;;
24485;SDS011;13449;49.374;8.584;2023-05-09T14:22:48;8.45;;;4.20;;
24485;SDS011;13449;49.374;8.584;2023-05-09T14:25:14;6.43;;;3.50;;
24485;SDS011;13449;49.374;8.584;2023-05-09T14:27:43;5.15;;;3.60;;
24485;SDS011;13449;49.374;8.584;2023-05-09T14:30:12;2.67;;;2.47;;
24485;SDS011;13449;49.374;8.584;2023-05-09T14:32:39;4.30;;;2.45;;
24485;SDS011;13449;49.374;8.584;2023-05-09T14:35:06;3.97;;;2.25;;
24485;SDS011;13449;49.374;8.584;2023-05-09T14:37:33;3.13;;;2.55;;
24485;SDS011;13449;49.374;8.584;2023-05-09T14:39:59;4.57;;;2.80;;
24485;SDS011;13449;49.374;8.584;2023-05-09T14:42:30;7.40;;;2.70;;
24485;SDS011;13449;49.374;8.584;2023-05-09T14:44:57;8.15;;;3.03;;
24485;SDS011;13449;49.374;8.584;2023-05-09T14:47:29;3.42;;;2.60;;
24485;SDS011;13449;49.374;8.584;2023-05-09T14:49:55;2.95;;;2.40;;
24485;SDS011;13449;49.374;8.584;2023-05-09T14:52:24;3.13;;;2.78;;
24485;SDS011;13449;49.374;8.584;2023-05-09T14:54:51;3.53;;;3.22;;
24485;SDS011;13449;49.374;8.584;2023-05-09T14:57:25;3.40;;;3.10;;
24485;SDS011;13449;49.374;8.584;2023-05-09T14:59:51;5.60;;;3.17;;
24485;SDS011;13449;49.374;8.584;2023-05-09T15:02:17;6.40;;;3.55;;
24485;SDS011;13449;49.374;8.584;2023-05-09T15:04:44;10.15;;;3.30;;
24485;SDS011;13449;49.374;8.584;2023-05-09T15:07:11;6.78;;;3.13;;
24485;SDS011;13449;49.374;8.584;2023-05-09T15:09:39;5.43;;;3.33;;
24485;SDS011;13449;49.374;8.584;2023-05-09T15:12:06;4.80;;;3.30;;
24485;SDS011;13449;49.374;8.584;2023-05-09T15:14:32;4.00;;;3.35;;
24485;SDS011;13449;49.374;8.584;2023-05-09T15:16:58;6.18;;;3.10;;
24485;SDS011;13449;49.374;8.584;2023-05-09T15:19:30;3.28;;;3.00;;
24485;SDS011;13449;49.374;8.584;2023-05-09T15:22:01;5.55;;;3.60;;
24485;SDS011;13449;49.374;8.584;2023-05-09T15:24:29;4.55;;;3.38;;
24485;SDS011;13449;49.374;8.584;2023-05-09T15:26:56;4.57;;;3.83;;
24485;SDS011;13449;49.374;8.584;2023-05-09T15:29:22;9.93;;;3.47;;
24485;SDS011;13449;49.374;8.584;2023-05-09T15:31:49;4.68;;;3.63;;
24485;SDS011;13449;49.374;8.584;2023-05-09T15:34:15;5.60;;;3.65;;
24485;SDS011;13449;49.374;8.584;2023-05-09T15:36:42;4.70;;;3.42;;
24485;SDS011;13449;49.374;8.584;2023-05-09T15:39:11;8.20;;;3.67;;
24485;SDS011;13449;49.374;8.584;2023-05-09T15:41:40;6.85;;;4.50;;
24485;SDS011;13449;49.374;8.584;2023-05-09T15:44:11;6.50;;;4.03;;
24485;SDS011;13449;49.374;8.584;2023-05-09T15:46:39;4.45;;;3.78;;
24485;SDS011;13449;49.374;8.584;2023-05-09T15:49:06;4.68;;;3.53;;
24485;SDS011;13449;49.374;8.584;2023-05-09T15:51:35;5.95;;;4.22;;
24485;SDS011;13449;49.374;8.584;2023-05-09T15:54:01;5.78;;;4.22;;